Flight Track Log - Related Links

Times and Time Zones

All times are in EDT time to prevent confusion due to time zone crossing. See the SLI230 flight status page for this flight to view local times or setup timezone preferences in your user account.

Time Position Orientation Groundspeed Altitude Reporting Facility
EDT Latitude Longitude Course Direction KTS MPH feet Rate Location/Type
Sat 02:31:00 PM 19.9449 -99.4152 328° Northwest  Level Estimated
Sat 02:32:00 PM 20.0296 -99.4726 328° Northwest  Level Estimated
Sat 02:33:00 PM 20.1142 -99.5300 328° Northwest  Level Estimated
Sat 02:34:00 PM 20.1989 -99.5875 327° Northwest  Level Estimated
Sat 02:35:00 PM 20.2835 -99.6451 327° Northwest  Level Estimated
Sat 02:36:00 PM 20.3682 -99.7028 327° Northwest  Level Estimated
Sat 02:37:00 PM 20.4528 -99.7605 327° Northwest  Level Estimated
Sat 02:38:00 PM 20.5373 -99.8182 327° Northwest  Level Estimated
Sat 02:39:00 PM 20.6219 -99.8761 327° Northwest  Level Estimated
Sat 02:40:00 PM 20.7064 -99.9340 327° Northwest  Level Estimated
Sat 02:41:00 PM 20.7910 -99.9919 327° Northwest  Level Estimated
Sat 02:42:00 PM 20.8755 -100.0499 327° Northwest  Level Estimated
Sat 02:43:00 PM 20.9600 -100.1080 327° Northwest  Level Estimated
Sat 02:44:00 PM 21.0444 -100.1662 327° Northwest  Level Estimated
Sat 02:45:00 PM 21.1289 -100.2244 327° Northwest  Level Estimated
Sat 02:46:00 PM 21.2133 -100.2827 327° Northwest  Level Estimated
Sat 02:47:00 PM 21.2977 -100.3411 327° Northwest  Level Estimated
Sat 02:48:00 PM 21.3821 -100.3995 327° Northwest  Level Estimated
Sat 02:49:00 PM 21.4665 -100.4580 327° Northwest  Level Estimated
Sat 02:50:00 PM 21.5508 -100.5165 327° Northwest  Level Estimated
Sat 02:51:00 PM 21.6352 -100.5752 327° Northwest  Level Estimated
Sat 02:52:00 PM 21.7194 -100.6339 327° Northwest  Level Estimated
Sat 02:53:00 PM 21.8037 -100.6926 327° Northwest  Level Estimated
Sat 02:54:00 PM 21.8880 -100.7514 327° Northwest  Level Estimated
Sat 02:55:00 PM 21.9722 -100.8104 327° Northwest  Level Estimated
Sat 02:56:00 PM 22.0565 -100.8693 327° Northwest  Level Estimated
Sat 02:57:00 PM 22.1407 -100.9284 327° Northwest  Level Estimated
Sat 02:58:00 PM 22.2248 -100.9875 327° Northwest  Level Estimated
Sat 02:59:00 PM 22.3090 -101.0467 327° Northwest  Level Estimated
Sat 03:00:00 PM 22.3931 -101.1059 327° Northwest  Level Estimated
Sat 03:01:00 PM 22.4773 -101.1653 327° Northwest  Level Estimated
Sat 03:02:00 PM 22.5613 -101.2247 327° Northwest  Level Estimated
Sat 03:03:00 PM 22.6454 -101.2841 327° Northwest  Level Estimated
Sat 03:04:00 PM 22.7295 -101.3437 327° Northwest  Level Estimated
Sat 03:05:00 PM 22.8135 -101.4033 327° Northwest  Level Estimated
Sat 03:06:00 PM 22.8975 -101.4630 327° Northwest  Level Estimated
Sat 03:07:00 PM 22.9815 -101.5228 327° Northwest  Level Estimated
Sat 03:08:00 PM 23.0655 -101.5826 327° Northwest  Level Estimated
Sat 03:09:00 PM 23.1494 -101.6425 327° Northwest  Level Estimated
Sat 03:10:00 PM 23.2333 -101.7025 327° Northwest  Level Estimated
Sat 03:11:00 PM 23.3172 -101.7626 327° Northwest  Level Estimated
Sat 03:12:00 PM 23.4011 -101.8227 327° Northwest  Level Estimated
Sat 03:13:00 PM 23.4849 -101.8829 327° Northwest  Level Estimated
Sat 03:14:00 PM 23.5687 -101.9432 327° Northwest  Level Estimated
Sat 03:15:00 PM 23.6525 -102.0036 327° Northwest  Level Estimated
Sat 03:16:00 PM 23.7363 -102.0640 327° Northwest  Level Estimated
Sat 03:17:00 PM 23.8201 -102.1246 327° Northwest  Level Estimated
Sat 03:18:00 PM 23.9038 -102.1852 327° Northwest  Level Estimated
Sat 03:19:00 PM 23.9875 -102.2458 326° Northwest  Level Estimated
Sat 03:20:00 PM 24.0712 -102.3066 326° Northwest  Level Estimated
Sat 03:21:00 PM 24.1548 -102.3674 326° Northwest  Level Estimated
Sat 03:22:00 PM 24.2385 -102.4284 326° Northwest  Level Estimated
Sat 03:23:00 PM 24.3221 -102.4894 326° Northwest  Level Estimated
Sat 03:24:00 PM 24.4057 -102.5505 326° Northwest  Level Estimated
Sat 03:25:00 PM 24.4892 -102.6116 326° Northwest  Level Estimated
Sat 03:26:00 PM 24.5728 -102.6729 326° Northwest  Level Estimated
Sat 03:27:00 PM 24.6563 -102.7342 326° Northwest  Level Estimated
Sat 03:28:00 PM 24.7398 -102.7956 326° Northwest  Level Estimated
Sat 03:29:00 PM 24.8232 -102.8571 326° Northwest  Level Estimated
Sat 03:30:00 PM 24.9067 -102.9187 326° Northwest  Level Estimated
Sat 03:31:00 PM 24.9901 -102.9803 326° Northwest  Level Estimated
Sat 03:32:00 PM 25.0735 -103.0421 326° Northwest  Level Estimated
Sat 03:33:00 PM 25.1568 -103.1039 326° Northwest  Level Estimated
Sat 03:34:00 PM 25.2401 -103.1658 326° Northwest  Level Estimated
Sat 03:35:00 PM 25.3235 -103.2278 326° Northwest  Level Estimated
Sat 03:36:00 PM 25.4067 -103.2899 326° Northwest  Level Estimated
Sat 03:37:00 PM 25.4900 -103.3520 326° Northwest  Level Estimated
Sat 03:38:00 PM 25.5683 -103.4106 326° Northwest  Level Estimated
Sat 03:39:00 PM 25.5683 -103.4106 North  Level Estimated
Sat 03:40:00 PM 25.5683 -103.4106 North  Level Estimated
Sat 03:41:00 PM 25.5683 -103.4106 North  Level Estimated
Sat 03:42:00 PM 25.5683 -103.4106 North  Level Estimated
Sat 03:43:00 PM 25.5683 -103.4106 North  Level Estimated
Sat 03:44:00 PM 25.5683 -103.4106 North  Level Estimated
Sat 03:45:00 PM 25.5683 -103.4106 North  Level Estimated
Sat 03:46:00 PM 25.5683 -103.4106 North  Level Estimated
Sat 03:47:00 PM 25.5683 -103.4106 North  Level Estimated
Sat 03:48:00 PM 25.5683 -103.4106 North  Level Estimated
Sat 03:49:00 PM 25.5683 -103.4106 North  Level Estimated
Sat 03:50:00 PM 25.5683 -103.4106 North  Level Estimated
Sat 03:51:00 PM 25.5683 -103.4106 North  Level Estimated
Sat 03:52:00 PM 25.5683 -103.4106 North  Level Estimated
Sat 03:53:00 PM 25.5683 -103.4106 North  Level Estimated
Sat 03:54:00 PM 25.5683 -103.4106 North  Level Estimated

Login

Don't have an account? Register now (free) for customized features, flight alerts, and more!